Time;durP1;ratioP1;P1;durP2;ratioP2;P2;SDS_P1;SDS_P2;PMS_P1;PMS_P2;Temp;Humidity;BMP_temperature;BMP_pressure;BME280_temperature;BME280_humidity;BME280_pressure;Samples;Min_cycle;Max_cycle;Signal;HPM_P1;HPM_P2
2022/12/03 00:00:14;;;;;;;;;;;4.50;99.00;;;;;;5094718;28;19975;-76
2022/12/03 00:02:41;;;;;;;;;;;4.50;99.00;;;;;;5091545;28;19991;-76
2022/12/03 00:05:08;;;;;;;;;;;4.50;99.00;;;;;;5094992;28;19982;-76
2022/12/03 00:07:34;;;;;;;;;;;4.50;99.00;;;;;;5094770;28;19978;-75
2022/12/03 00:10:01;;;;;;;;;;;4.50;99.00;;;;;;5100411;28;19975;-76
2022/12/03 00:12:27;;;;;;;;;;;4.50;99.00;;;;;;5096118;28;19991;-77
2022/12/03 00:14:54;;;;;;;;;;;4.50;99.00;;;;;;5103942;28;19999;-77
2022/12/03 00:17:22;;;;;;;;;;;4.50;99.00;;;;;;5091090;28;19994;-75
2022/12/03 00:19:48;;;;;;;;;;;4.50;99.00;;;;;;5089606;28;20757;-75
2022/12/03 00:22:15;;;;;;;;;;;4.50;99.00;;;;;;5096648;28;19997;-76
2022/12/03 00:24:42;;;;;;;;;;;4.50;99.00;;;;;;5093352;28;19982;-75
2022/12/03 00:27:08;;;;;;;;;;;4.50;99.00;;;;;;5098337;28;19981;-77
2022/12/03 00:29:35;;;;;;;;;;;4.50;99.00;;;;;;5101784;28;19990;-76
2022/12/03 00:32:01;;;;;;;;;;;4.50;98.90;;;;;;5090473;28;20378;-76
2022/12/03 00:34:29;;;;;;;;;;;4.50;98.90;;;;;;5097627;27;20029;-76
2022/12/03 00:36:56;;;;;;;;;;;4.50;98.90;;;;;;5099342;28;19996;-75
2022/12/03 00:39:22;;;;;;;;;;;4.50;99.00;;;;;;5091149;28;19975;-76
2022/12/03 00:41:49;;;;;;;;;;;4.50;98.90;;;;;;5088059;28;19975;-75
2022/12/03 00:44:15;;;;;;;;;;;4.50;98.90;;;;;;5095170;27;19982;-75
2022/12/03 00:46:42;;;;;;;;;;;4.50;98.90;;;;;;5094596;28;19995;-76
2022/12/03 00:49:08;;;;;;;;;;;4.50;99.00;;;;;;5095924;28;19985;-76
2022/12/03 00:51:36;;;;;;;;;;;4.50;99.00;;;;;;5097961;28;19974;-76
2022/12/03 00:54:04;;;;;;;;;;;4.50;98.90;;;;;;5091418;28;20645;-76
2022/12/03 00:56:30;;;;;;;;;;;4.50;99.00;;;;;;5099890;28;19987;-76
2022/12/03 00:58:57;;;;;;;;;;;4.50;99.00;;;;;;5096622;28;19985;-77
2022/12/03 01:01:23;;;;;;;;;;;4.50;99.20;;;;;;5094897;28;19991;-75
2022/12/03 01:03:50;;;;;;;;;;;4.50;98.90;;;;;;5103619;27;19990;-76
2022/12/03 01:06:16;;;;;;;;;;;4.50;98.90;;;;;;5102168;28;19975;-76
2022/12/03 01:08:44;;;;;;;;;;;4.50;98.90;;;;;;5100908;28;19975;-76
2022/12/03 01:13:51;;;;;;;;;;;4.50;98.90;;;;;;5096935;28;20144;-76
2022/12/03 01:16:18;;;;;;;;;;;4.50;98.90;;;;;;5102242;28;19994;-76
2022/12/03 01:18:45;;;;;;;;;;;4.50;98.90;;;;;;5103296;28;19985;-76
2022/12/03 01:21:11;;;;;;;;;;;4.50;98.90;;;;;;5100492;28;20061;-76
2022/12/03 01:23:38;;;;;;;;;;;4.50;98.90;;;;;;5093876;28;19991;-75
2022/12/03 01:26:06;;;;;;;;;;;4.50;98.90;;;;;;5096077;28;19982;-76
2022/12/03 01:28:32;;;;;;;;;;;4.50;98.90;;;;;;5092895;27;19982;-76
2022/12/03 01:33:43;;;;;;;;;;;4.50;98.90;;;;;;5097586;27;20330;-75
2022/12/03 01:36:09;;;;;;;;;;;4.50;98.90;;;;;;5101724;27;20029;-76
2022/12/03 01:38:36;;;;;;;;;;;4.50;99.20;;;;;;5099822;27;20135;-75
2022/12/03 01:41:03;;;;;;;;;;;4.50;98.90;;;;;;5095622;28;19975;-76
2022/12/03 01:43:31;;;;;;;;;;;4.50;98.90;;;;;;5096277;27;19991;-76
2022/12/03 01:45:57;;;;;;;;;;;4.40;98.90;;;;;;5092992;28;19998;-76
2022/12/03 01:48:24;;;;;;;;;;;4.70;98.90;;;;;;5097779;27;19982;-76
2022/12/03 01:50:50;;;;;;;;;;;4.50;98.90;;;;;;5094661;27;20622;-75
2022/12/03 01:53:18;;;;;;;;;;;4.50;98.90;;;;;;5093849;28;20292;-76
2022/12/03 01:55:44;;;;;;;;;;;4.50;98.90;;;;;;5095240;28;20095;-76
2022/12/03 01:58:12;;;;;;;;;;;4.40;98.90;;;;;;5095336;28;19982;-75
2022/12/03 02:00:40;;;;;;;;;;;4.40;98.90;;;;;;5099105;28;20376;-75
2022/12/03 02:03:08;;;;;;;;;;;4.40;98.90;;;;;;5095730;27;19991;-76
2022/12/03 02:05:34;;;;;;;;;;;4.40;98.90;;;;;;5102902;28;19978;-77
2022/12/03 02:08:01;;;;;;;;;;;4.50;98.90;;;;;;5094396;28;20438;-76
2022/12/03 02:10:29;;;;;;;;;;;4.50;98.90;;;;;;5096744;28;19974;-76
2022/12/03 02:12:57;;;;;;;;;;;4.40;98.90;;;;;;5096548;28;20505;-76
2022/12/03 02:15:24;;;;;;;;;;;4.40;98.80;;;;;;5103199;27;20001;-76
2022/12/03 02:17:52;;;;;;;;;;;4.40;98.90;;;;;;5096676;28;19982;-76
2022/12/03 02:20:19;;;;;;;;;;;4.40;98.90;;;;;;5097978;28;20397;-76
2022/12/03 02:22:48;;;;;;;;;;;4.40;98.90;;;;;;5098146;27;20385;-75
2022/12/03 02:25:17;;;;;;;;;;;4.40;98.90;;;;;;5099466;27;20077;-76
2022/12/03 02:27:44;;;;;;;;;;;4.40;98.90;;;;;;5096263;27;20078;-76
2022/12/03 02:30:12;;;;;;;;;;;4.40;98.90;;;;;;5098588;27;19979;-75
2022/12/03 02:32:38;;;;;;;;;;;4.40;98.80;;;;;;5095403;27;19991;-76
2022/12/03 02:35:06;;;;;;;;;;;4.40;98.80;;;;;;5092329;27;19991;-75
2022/12/03 02:37:34;;;;;;;;;;;4.40;98.90;;;;;;5089625;28;20822;-77
2022/12/03 02:40:02;;;;;;;;;;;4.40;98.90;;;;;;5091383;28;19982;-76
2022/12/03 02:42:35;;;;;;;;;;;4.40;98.90;;;;;;5099244;28;19991;-76
2022/12/03 02:45:04;;;;;;;;;;;4.40;98.90;;;;;;5097806;27;19974;-75
2022/12/03 02:47:31;;;;;;;;;;;4.40;98.90;;;;;;5095091;28;20085;-76
2022/12/03 02:49:58;;;;;;;;;;;4.30;98.90;;;;;;5097217;28;20578;-76
2022/12/03 02:52:25;;;;;;;;;;;4.30;98.90;;;;;;5094647;28;19998;-75
2022/12/03 02:54:52;;;;;;;;;;;4.30;98.90;;;;;;5092256;28;20032;-76
2022/12/03 02:57:18;;;;;;;;;;;4.40;98.90;;;;;;5096535;28;19982;-76
2022/12/03 02:59:46;;;;;;;;;;;4.40;98.90;;;;;;5091511;28;19990;-76
2022/12/03 03:02:14;;;;;;;;;;;4.30;98.90;;;;;;5095316;28;20740;-77
2022/12/03 03:04:41;;;;;;;;;;;4.40;98.90;;;;;;5098670;28;20001;-75
2022/12/03 03:07:09;;;;;;;;;;;4.30;98.90;;;;;;5097808;28;19975;-75
2022/12/03 03:09:36;;;;;;;;;;;4.40;98.90;;;;;;5094453;28;20433;-76
2022/12/03 03:12:03;;;;;;;;;;;4.30;98.90;;;;;;5090987;28;19990;-76
2022/12/03 03:14:29;;;;;;;;;;;4.30;98.90;;;;;;5092655;28;19994;-74
2022/12/03 03:16:57;;;;;;;;;;;4.30;98.90;;;;;;5089249;28;20487;-76
2022/12/03 03:19:24;;;;;;;;;;;4.30;98.90;;;;;;5095521;28;19975;-76
2022/12/03 03:21:52;;;;;;;;;;;4.30;98.90;;;;;;5096021;28;19982;-76
2022/12/03 03:24:18;;;;;;;;;;;4.30;98.90;;;;;;5097268;28;19982;-76
2022/12/03 03:26:45;;;;;;;;;;;4.30;98.90;;;;;;5088613;28;19990;-76
2022/12/03 03:29:12;;;;;;;;;;;4.30;98.90;;;;;;5093349;28;19979;-75
2022/12/03 03:31:39;;;;;;;;;;;4.30;98.90;;;;;;5091529;28;20002;-76
2022/12/03 03:34:07;;;;;;;;;;;4.30;99.30;;;;;;5093056;28;20616;-76
2022/12/03 03:36:33;;;;;;;;;;;4.30;99.00;;;;;;5097735;28;19975;-75
2022/12/03 03:39:00;;;;;;;;;;;4.20;98.90;;;;;;5092458;28;20002;-75
2022/12/03 03:41:27;;;;;;;;;;;4.30;99.00;;;;;;5096225;28;19974;-76
2022/12/03 03:43:54;;;;;;;;;;;4.20;98.90;;;;;;5093933;28;19995;-76
2022/12/03 03:46:21;;;;;;;;;;;4.20;98.90;;;;;;5099305;28;19998;-75
2022/12/03 03:48:48;;;;;;;;;;;4.20;99.20;;;;;;5101298;28;19975;-77
2022/12/03 03:51:17;;;;;;;;;;;4.20;98.90;;;;;;5100092;28;19974;-77
2022/12/03 03:53:46;;;;;;;;;;;4.20;98.90;;;;;;5095202;28;20002;-75
2022/12/03 03:56:14;;;;;;;;;;;4.20;98.90;;;;;;5097776;27;20003;-76
2022/12/03 03:58:40;;;;;;;;;;;4.20;98.90;;;;;;5096219;28;19975;-76
2022/12/03 04:01:07;;;;;;;;;;;4.20;98.90;;;;;;5103933;27;19990;-76
2022/12/03 04:03:34;;;;;;;;;;;4.10;98.90;;;;;;5109697;27;19990;-75
2022/12/03 04:06:00;;;;;;;;;;;4.20;99.00;;;;;;5103723;27;19975;-77
2022/12/03 04:08:28;;;;;;;;;;;4.10;98.90;;;;;;5101108;27;19986;-75
2022/12/03 04:13:39;;;;;;;;;;;4.10;98.90;;;;;;5100579;27;20091;-76
2022/12/03 04:16:06;;;;;;;;;;;4.10;98.90;;;;;;5100658;27;20374;-76
2022/12/03 04:18:44;;;;;;;;;;;4.20;98.90;;;;;;5103977;27;20058;-75
2022/12/03 04:23:57;;;;;;;;;;;4.10;99.00;;;;;;5096739;27;20215;-75
2022/12/03 04:29:08;;;;;;;;;;;4.10;99.00;;;;;;5103515;28;20046;-75
2022/12/03 04:37:04;;;;;;;;;;;4.10;99.00;;;;;;5097210;27;20669;-76
2022/12/03 04:39:32;;;;;;;;;;;4.00;99.00;;;;;;5097833;27;19982;-77
2022/12/03 04:41:58;;;;;;;;;;;4.00;99.00;;;;;;5090727;28;20002;-77
2022/12/03 04:44:35;;;;;;;;;;;4.00;99.00;;;;;;5097023;27;19981;-75
2022/12/03 04:47:03;;;;;;;;;;;4.10;99.40;;;;;;5090158;28;20002;-75
2022/12/03 04:49:30;;;;;;;;;;;4.10;99.10;;;;;;5096181;27;20715;-75
2022/12/03 04:51:56;;;;;;;;;;;4.00;99.00;;;;;;5091048;28;19997;-75
2022/12/03 04:54:23;;;;;;;;;;;4.00;99.00;;;;;;5094780;28;20341;-75
2022/12/03 04:56:51;;;;;;;;;;;4.10;99.10;;;;;;5091782;28;20723;-77
2022/12/03 04:59:17;;;;;;;;;;;4.10;99.10;;;;;;5094391;28;19971;-76
2022/12/03 05:01:44;;;;;;;;;;;4.00;99.00;;;;;;5091660;28;20002;-75
2022/12/03 05:04:11;;;;;;;;;;;4.00;99.00;;;;;;5095572;28;20803;-76
2022/12/03 05:06:38;;;;;;;;;;;4.00;99.00;;;;;;5095142;28;19985;-76
2022/12/03 05:09:04;;;;;;;;;;;4.00;99.10;;;;;;5094370;28;19974;-76
2022/12/03 05:11:31;;;;;;;;;;;4.00;99.00;;;;;;5094234;28;19982;-76
2022/12/03 05:13:59;;;;;;;;;;;4.00;99.00;;;;;;5096577;28;19995;-75
2022/12/03 05:16:25;;;;;;;;;;;4.00;99.00;;;;;;5095766;28;20002;-76
2022/12/03 05:18:52;;;;;;;;;;;4.00;99.40;;;;;;5091140;28;20013;-76
2022/12/03 05:21:18;;;;;;;;;;;4.00;99.00;;;;;;5095540;28;19974;-76
2022/12/03 05:23:45;;;;;;;;;;;4.00;99.00;;;;;;5095264;28;19990;-77
2022/12/03 05:26:12;;;;;;;;;;;4.00;99.00;;;;;;5087733;28;19982;-76
2022/12/03 05:28:38;;;;;;;;;;;4.10;99.00;;;;;;5092472;28;19986;-75
2022/12/03 05:31:06;;;;;;;;;;;4.00;99.00;;;;;;5080907;28;19998;-75
2022/12/03 05:33:33;;;;;;;;;;;4.00;99.00;;;;;;5074286;28;20002;-76
2022/12/03 05:35:59;;;;;;;;;;;4.00;99.00;;;;;;5074939;28;19999;-75
2022/12/03 05:38:26;;;;;;;;;;;4.00;99.10;;;;;;5080267;28;19975;-75
2022/12/03 05:40:52;;;;;;;;;;;4.00;99.00;;;;;;5080884;28;19986;-76
2022/12/03 05:43:18;;;;;;;;;;;4.00;99.00;;;;;;5073354;28;20006;-75
2022/12/03 05:45:45;;;;;;;;;;;4.00;99.00;;;;;;5074254;28;19991;-76
2022/12/03 05:48:14;;;;;;;;;;;4.00;99.00;;;;;;5069189;28;19982;-75
2022/12/03 05:50:43;;;;;;;;;;;4.00;99.00;;;;;;5077385;28;19983;-76
2022/12/03 05:53:09;;;;;;;;;;;4.00;99.00;;;;;;5074615;28;20473;-75
2022/12/03 05:55:36;;;;;;;;;;;4.00;99.00;;;;;;5081119;28;19997;-77
2022/12/03 05:58:03;;;;;;;;;;;4.00;99.00;;;;;;5076129;28;19979;-76
2022/12/03 06:00:31;;;;;;;;;;;4.00;99.00;;;;;;5077363;28;19994;-76
2022/12/03 06:02:57;;;;;;;;;;;4.00;99.10;;;;;;5078228;28;20042;-75
2022/12/03 06:05:25;;;;;;;;;;;4.00;99.00;;;;;;5082037;28;20458;-76
2022/12/03 06:07:52;;;;;;;;;;;4.00;99.00;;;;;;5079394;28;19983;-76
2022/12/03 06:10:20;;;;;;;;;;;3.90;99.10;;;;;;5081950;28;19974;-76
2022/12/03 06:12:46;;;;;;;;;;;4.00;99.10;;;;;;5080359;28;20002;-77
2022/12/03 06:15:14;;;;;;;;;;;3.90;99.00;;;;;;5073188;28;19987;-77
2022/12/03 06:17:40;;;;;;;;;;;3.90;99.00;;;;;;5076704;28;19979;-76
2022/12/03 06:20:08;;;;;;;;;;;3.90;99.00;;;;;;5076518;28;20447;-77
2022/12/03 06:22:36;;;;;;;;;;;3.90;99.00;;;;;;5079976;28;20395;-75
2022/12/03 06:25:02;;;;;;;;;;;3.90;99.00;;;;;;5079649;28;19979;-76
2022/12/03 06:27:29;;;;;;;;;;;3.90;99.10;;;;;;5077370;28;20331;-75
2022/12/03 06:29:56;;;;;;;;;;;3.90;99.00;;;;;;5087277;28;20841;-76
2022/12/03 06:32:22;;;;;;;;;;;3.90;99.00;;;;;;5090459;28;20021;-76
2022/12/03 06:34:49;;;;;;;;;;;3.90;99.10;;;;;;5093278;28;20161;-75
2022/12/03 06:37:15;;;;;;;;;;;3.90;99.00;;;;;;5091526;28;20109;-76
2022/12/03 06:39:43;;;;;;;;;;;3.90;99.00;;;;;;5091135;28;19982;-76
2022/12/03 06:42:10;;;;;;;;;;;3.90;99.10;;;;;;5092805;28;19998;-75
2022/12/03 06:44:36;;;;;;;;;;;3.90;99.10;;;;;;5092999;28;19975;-76
2022/12/03 06:47:03;;;;;;;;;;;3.80;99.10;;;;;;5086130;28;19990;-75
2022/12/03 06:49:30;;;;;;;;;;;3.80;99.00;;;;;;5093577;28;19975;-75
2022/12/03 06:51:56;;;;;;;;;;;3.80;99.10;;;;;;5095334;28;20013;-76
2022/12/03 06:54:23;;;;;;;;;;;3.80;99.00;;;;;;5084425;28;19990;-75
2022/12/03 06:56:51;;;;;;;;;;;3.80;99.00;;;;;;5087791;28;20057;-76
2022/12/03 06:59:17;;;;;;;;;;;3.80;99.00;;;;;;5090126;28;20009;-75
2022/12/03 07:01:44;;;;;;;;;;;3.80;99.00;;;;;;5088007;28;19987;-76
2022/12/03 07:04:10;;;;;;;;;;;3.70;99.00;;;;;;5088720;28;20036;-76
2022/12/03 07:06:37;;;;;;;;;;;3.80;99.00;;;;;;5092790;28;19981;-75
2022/12/03 07:09:03;;;;;;;;;;;3.70;99.00;;;;;;5088492;28;19982;-75
2022/12/03 07:11:38;;;;;;;;;;;3.70;99.00;;;;;;5085028;28;19976;-76
2022/12/03 07:14:07;;;;;;;;;;;3.70;99.00;;;;;;5092315;28;19989;-76
2022/12/03 07:16:34;;;;;;;;;;;3.70;99.00;;;;;;5092231;28;19998;-77
2022/12/03 07:19:00;;;;;;;;;;;3.70;99.00;;;;;;5093560;28;19974;-76
2022/12/03 07:21:27;;;;;;;;;;;3.70;99.10;;;;;;5095291;28;19975;-77
2022/12/03 07:23:54;;;;;;;;;;;3.70;99.10;;;;;;5096464;28;20363;-75
2022/12/03 07:26:20;;;;;;;;;;;3.60;99.00;;;;;;5094375;28;19974;-76
2022/12/03 07:28:48;;;;;;;;;;;3.60;99.00;;;;;;5093756;28;19979;-77
2022/12/03 07:31:15;;;;;;;;;;;3.60;99.00;;;;;;5094202;28;20019;-75
2022/12/03 07:33:42;;;;;;;;;;;3.60;99.00;;;;;;5096936;28;20010;-75
2022/12/03 07:36:09;;;;;;;;;;;3.60;99.00;;;;;;5096244;28;20077;-77
2022/12/03 07:38:35;;;;;;;;;;;3.60;98.30;;;;;;5097316;28;20070;-77
2022/12/03 07:41:02;;;;;;;;;;;3.40;97.60;;;;;;5100578;28;20174;-77
2022/12/03 07:43:28;;;;;;;;;;;3.30;97.90;;;;;;5104867;28;19932;-77
2022/12/03 07:45:55;;;;;;;;;;;3.30;98.20;;;;;;5099978;28;20251;-76
2022/12/03 07:48:23;;;;;;;;;;;3.30;98.40;;;;;;5102197;28;19928;-77
2022/12/03 07:50:49;;;;;;;;;;;3.30;98.50;;;;;;5099980;28;19935;-77
2022/12/03 07:53:16;;;;;;;;;;;3.30;98.60;;;;;;5101372;28;20622;-76
2022/12/03 07:55:43;;;;;;;;;;;3.30;98.70;;;;;;5104427;28;19970;-77
2022/12/03 07:58:09;;;;;;;;;;;3.30;98.70;;;;;;5101913;28;19939;-77
2022/12/03 08:00:36;;;;;;;;;;;3.30;98.80;;;;;;5100439;28;19935;-77
2022/12/03 08:03:02;;;;;;;;;;;3.40;98.80;;;;;;5100684;28;19935;-75
2022/12/03 08:05:30;;;;;;;;;;;3.40;98.80;;;;;;5105233;28;19939;-76
2022/12/03 08:07:57;;;;;;;;;;;3.40;98.80;;;;;;5098469;28;19928;-76
2022/12/03 08:10:24;;;;;;;;;;;3.30;98.80;;;;;;5096987;28;19939;-76
2022/12/03 08:12:52;;;;;;;;;;;3.30;98.70;;;;;;5097774;28;19944;-75
2022/12/03 08:15:19;;;;;;;;;;;3.30;98.20;;;;;;5094155;28;19928;-76
2022/12/03 08:17:47;;;;;;;;;;;3.30;98.50;;;;;;5094730;28;19935;-76
2022/12/03 08:20:15;;;;;;;;;;;3.20;98.70;;;;;;5096986;28;19935;-77
2022/12/03 08:22:43;;;;;;;;;;;3.20;98.80;;;;;;5097322;28;19935;-76
2022/12/03 08:25:13;;;;;;;;;;;3.20;98.90;;;;;;5094563;28;19935;-76
2022/12/03 08:27:40;;;;;;;;;;;3.30;99.00;;;;;;5097915;28;19927;-77
2022/12/03 08:30:07;;;;;;;;;;;3.30;99.10;;;;;;5096729;28;19927;-75
2022/12/03 08:32:34;;;;;;;;;;;3.20;99.10;;;;;;5099586;28;19973;-76
2022/12/03 08:35:01;;;;;;;;;;;3.30;99.20;;;;;;5098258;28;20406;-75
2022/12/03 08:37:29;;;;;;;;;;;3.30;99.20;;;;;;5098829;28;19928;-75
2022/12/03 08:39:57;;;;;;;;;;;3.30;99.30;;;;;;5098536;28;19943;-75
2022/12/03 08:42:42;;;;;;;;;;;3.30;99.30;;;;;;5099897;28;19928;-76
2022/12/03 08:45:31;;;;;;;;;;;3.30;99.30;;;;;;5097136;28;19932;-76
2022/12/03 08:47:59;;;;;;;;;;;3.40;99.30;;;;;;5100814;28;20613;-76
2022/12/03 08:50:26;;;;;;;;;;;3.40;99.30;;;;;;5099636;28;20480;-77
2022/12/03 08:52:54;;;;;;;;;;;3.40;99.30;;;;;;5095548;28;20042;-75
2022/12/03 08:55:31;;;;;;;;;;;3.40;99.30;;;;;;5092990;28;19978;-76
2022/12/03 08:57:58;;;;;;;;;;;3.40;99.30;;;;;;5097719;28;19980;-77
2022/12/03 09:00:25;;;;;;;;;;;3.40;99.30;;;;;;5095312;28;20546;-77
2022/12/03 09:02:53;;;;;;;;;;;3.40;99.30;;;;;;5092394;28;19991;-76
2022/12/03 09:05:20;;;;;;;;;;;3.40;99.30;;;;;;5088537;28;20017;-76
2022/12/03 09:07:47;;;;;;;;;;;3.50;99.30;;;;;;5087291;28;19986;-77
2022/12/03 09:10:14;;;;;;;;;;;3.50;99.30;;;;;;5086496;28;19979;-76
2022/12/03 09:12:42;;;;;;;;;;;3.50;99.30;;;;;;5096826;28;20005;-76
2022/12/03 09:15:09;;;;;;;;;;;3.50;99.30;;;;;;5093125;28;20390;-76
2022/12/03 09:17:35;;;;;;;;;;;3.50;99.30;;;;;;5087188;28;19990;-76
2022/12/03 09:20:02;;;;;;;;;;;3.50;99.20;;;;;;5082831;28;19979;-75
2022/12/03 09:22:29;;;;;;;;;;;3.50;99.20;;;;;;5092406;28;20003;-77
2022/12/03 09:24:55;;;;;;;;;;;3.50;99.20;;;;;;5084968;28;20002;-76
2022/12/03 09:27:22;;;;;;;;;;;3.50;99.20;;;;;;5093885;28;20016;-76
2022/12/03 09:29:50;;;;;;;;;;;3.60;99.20;;;;;;5096725;28;19979;-76
2022/12/03 09:32:16;;;;;;;;;;;3.60;99.20;;;;;;5095312;28;19998;-78
2022/12/03 09:34:43;;;;;;;;;;;3.60;99.20;;;;;;5096475;28;19979;-77
2022/12/03 09:37:09;;;;;;;;;;;3.60;99.20;;;;;;5095528;28;19991;-76
2022/12/03 09:39:36;;;;;;;;;;;3.60;99.20;;;;;;5092056;28;20041;-76
2022/12/03 09:42:03;;;;;;;;;;;3.60;99.10;;;;;;5099202;28;20039;-76
2022/12/03 09:44:30;;;;;;;;;;;3.60;99.10;;;;;;5102015;28;19975;-78
2022/12/03 09:46:58;;;;;;;;;;;3.70;99.10;;;;;;5100203;28;20001;-77
2022/12/03 09:49:26;;;;;;;;;;;3.70;99.10;;;;;;5100327;28;19975;-76
2022/12/03 09:51:54;;;;;;;;;;;3.70;99.10;;;;;;5100835;28;19983;-77
2022/12/03 09:54:23;;;;;;;;;;;3.70;99.10;;;;;;5098500;28;19978;-76
2022/12/03 09:56:50;;;;;;;;;;;3.70;99.10;;;;;;5096401;28;20040;-76
2022/12/03 09:59:16;;;;;;;;;;;3.70;99.10;;;;;;5090753;28;19987;-77
2022/12/03 10:01:43;;;;;;;;;;;3.70;99.10;;;;;;5101618;28;20714;-77
2022/12/03 10:04:11;;;;;;;;;;;3.70;99.00;;;;;;5095638;28;19975;-77
2022/12/03 10:06:38;;;;;;;;;;;3.70;99.00;;;;;;5092640;28;19982;-76
2022/12/03 10:09:05;;;;;;;;;;;3.70;99.10;;;;;;5098656;28;19982;-77
2022/12/03 10:11:32;;;;;;;;;;;3.80;99.10;;;;;;5096526;28;20074;-77
2022/12/03 10:13:58;;;;;;;;;;;3.80;99.10;;;;;;5098278;28;19995;-76
2022/12/03 10:16:26;;;;;;;;;;;3.80;99.10;;;;;;5099105;28;19994;-76
2022/12/03 10:18:54;;;;;;;;;;;3.80;99.10;;;;;;5097175;28;20519;-75
2022/12/03 10:21:23;;;;;;;;;;;3.80;99.10;;;;;;5097490;28;19982;-76
2022/12/03 10:23:50;;;;;;;;;;;3.80;99.00;;;;;;5096061;28;19990;-76
2022/12/03 10:26:16;;;;;;;;;;;3.80;99.00;;;;;;5104711;28;20027;-76
2022/12/03 10:28:46;;;;;;;;;;;3.80;99.00;;;;;;5103987;28;19979;-76
2022/12/03 10:31:13;;;;;;;;;;;3.80;99.00;;;;;;5101409;28;20080;-77
2022/12/03 10:33:43;;;;;;;;;;;3.80;99.00;;;;;;5104908;28;20370;-76
2022/12/03 10:36:17;;;;;;;;;;;3.90;99.00;;;;;;5099022;28;19990;-77
2022/12/03 10:38:45;;;;;;;;;;;3.90;99.00;;;;;;5100528;28;19974;-77
2022/12/03 10:41:19;;;;;;;;;;;3.90;99.00;;;;;;5099801;28;20005;-76
2022/12/03 10:43:46;;;;;;;;;;;3.90;99.00;;;;;;5094264;28;20005;-77
2022/12/03 10:46:16;;;;;;;;;;;3.90;99.00;;;;;;5101523;28;20072;-77
2022/12/03 10:48:43;;;;;;;;;;;3.90;99.00;;;;;;5099426;28;19979;-77
2022/12/03 10:51:11;;;;;;;;;;;4.00;99.00;;;;;;5092136;28;20551;-75
2022/12/03 10:53:39;;;;;;;;;;;4.00;99.00;;;;;;5098642;28;19991;-76
2022/12/03 10:56:13;;;;;;;;;;;4.00;99.00;;;;;;5093860;28;19979;-76
2022/12/03 10:58:40;;;;;;;;;;;4.00;99.00;;;;;;5092565;28;20057;-76
2022/12/03 11:01:15;;;;;;;;;;;4.00;99.00;;;;;;5101726;28;19997;-75
2022/12/03 11:03:42;;;;;;;;;;;4.00;98.90;;;;;;5093833;28;19998;-78
2022/12/03 11:06:09;;;;;;;;;;;4.10;99.00;;;;;;5099008;28;20011;-77
2022/12/03 11:08:36;;;;;;;;;;;4.10;99.00;;;;;;5101348;28;19979;-76
2022/12/03 11:11:04;;;;;;;;;;;4.10;99.00;;;;;;5101799;28;20352;-78
2022/12/03 11:13:54;;;;;;;;;;;4.10;98.90;;;;;;5103372;28;20225;-76
2022/12/03 11:16:39;;;;;;;;;;;4.10;98.90;;;;;;5094589;28;19998;-76
2022/12/03 11:19:14;;;;;;;;;;;4.10;98.90;;;;;;5092886;28;19975;-78
2022/12/03 11:22:09;;;;;;;;;;;4.10;98.90;;;;;;5096651;28;19979;-77
2022/12/03 11:24:38;;;;;;;;;;;4.10;98.90;;;;;;5093651;28;19975;-76
2022/12/03 11:27:19;;;;;;;;;;;4.20;98.90;;;;;;5100847;28;19974;-76
2022/12/03 11:29:50;;;;;;;;;;;4.20;98.90;;;;;;5096767;28;20058;-77
2022/12/03 11:32:49;;;;;;;;;;;4.20;98.80;;;;;;5095634;28;19998;-77
2022/12/03 11:35:26;;;;;;;;;;;4.20;98.80;;;;;;5096725;28;19975;-75
2022/12/03 11:37:52;;;;;;;;;;;4.20;98.80;;;;;;5101835;28;19998;-78
2022/12/03 11:40:29;;;;;;;;;;;4.30;98.80;;;;;;5101430;28;19974;-78
2022/12/03 11:42:56;;;;;;;;;;;4.30;98.80;;;;;;5102646;28;20487;-77
2022/12/03 11:45:27;;;;;;;;;;;4.30;98.80;;;;;;5096980;28;19986;-75
2022/12/03 11:48:02;;;;;;;;;;;4.30;98.80;;;;;;5096271;28;19986;-77
2022/12/03 11:50:31;;;;;;;;;;;4.30;98.80;;;;;;5092978;28;20319;-76
2022/12/03 11:52:59;;;;;;;;;;;4.30;98.80;;;;;;5092665;28;19995;-77
2022/12/03 11:55:28;;;;;;;;;;;4.40;98.80;;;;;;5089632;28;19982;-76
2022/12/03 11:57:59;;;;;;;;;;;4.30;98.80;;;;;;5100033;28;20048;-77
2022/12/03 12:00:25;;;;;;;;;;;4.40;98.80;;;;;;5091994;28;19975;-78
2022/12/03 12:02:53;;;;;;;;;;;4.40;98.70;;;;;;5099463;28;20384;-76
2022/12/03 12:05:22;;;;;;;;;;;4.40;98.80;;;;;;5099522;28;19975;-77
2022/12/03 12:07:49;;;;;;;;;;;4.50;98.80;;;;;;5095923;28;20449;-76
2022/12/03 12:10:31;;;;;;;;;;;4.40;98.70;;;;;;5092874;27;19986;-77
2022/12/03 12:12:59;;;;;;;;;;;4.40;98.70;;;;;;5104568;27;20036;-76
2022/12/03 12:15:44;;;;;;;;;;;4.40;98.70;;;;;;5103409;27;19981;-75
2022/12/03 12:18:30;;;;;;;;;;;4.50;98.70;;;;;;5102942;28;19995;-76
2022/12/03 12:21:16;;;;;;;;;;;4.50;98.70;;;;;;5099938;28;19979;-78
2022/12/03 12:23:44;;;;;;;;;;;4.50;98.70;;;;;;5104641;28;19991;-76
2022/12/03 12:26:10;;;;;;;;;;;4.50;98.70;;;;;;5102637;28;20373;-76
2022/12/03 12:28:38;;;;;;;;;;;4.50;98.60;;;;;;5101687;28;20358;-78
2022/12/03 12:31:10;;;;;;;;;;;4.50;98.60;;;;;;5100343;28;20515;-77
2022/12/03 12:33:36;;;;;;;;;;;4.60;98.70;;;;;;5094891;27;19991;-76
2022/12/03 12:36:05;;;;;;;;;;;4.60;98.60;;;;;;5106264;27;19975;-76
2022/12/03 12:38:32;;;;;;;;;;;4.60;98.60;;;;;;5093685;27;19995;-76
2022/12/03 12:41:02;;;;;;;;;;;4.60;98.60;;;;;;5086173;28;20552;-76
2022/12/03 12:43:30;;;;;;;;;;;4.60;98.60;;;;;;5092947;27;19990;-78
2022/12/03 12:46:00;;;;;;;;;;;4.60;98.60;;;;;;5091073;28;20083;-78
2022/12/03 12:48:28;;;;;;;;;;;4.60;98.60;;;;;;5094934;27;19983;-78
2022/12/03 12:51:00;;;;;;;;;;;4.60;98.60;;;;;;5095491;27;19986;-75
2022/12/03 12:53:27;;;;;;;;;;;4.70;98.60;;;;;;5092914;27;19999;-77
2022/12/03 12:55:55;;;;;;;;;;;4.70;98.60;;;;;;5091797;27;19979;-77
2022/12/03 12:58:22;;;;;;;;;;;4.70;98.60;;;;;;5100269;27;20100;-77
2022/12/03 13:00:51;;;;;;;;;;;4.70;98.50;;;;;;5096123;27;20024;-77
2022/12/03 13:03:19;;;;;;;;;;;4.70;98.50;;;;;;5089211;28;19995;-77
2022/12/03 13:05:47;;;;;;;;;;;4.70;98.50;;;;;;5094769;27;19974;-76
2022/12/03 13:08:19;;;;;;;;;;;4.70;98.50;;;;;;5095940;28;20018;-76
2022/12/03 13:10:46;;;;;;;;;;;4.80;98.50;;;;;;5088987;27;19981;-76
2022/12/03 13:13:18;;;;;;;;;;;4.80;98.50;;;;;;5092908;28;19991;-77
2022/12/03 13:15:48;;;;;;;;;;;4.80;98.50;;;;;;5093725;28;20038;-76
2022/12/03 13:18:24;;;;;;;;;;;4.80;98.50;;;;;;5098880;28;20150;-77
2022/12/03 13:20:51;;;;;;;;;;;4.80;98.50;;;;;;5097780;27;19974;-76
2022/12/03 13:23:25;;;;;;;;;;;4.80;98.50;;;;;;5102995;28;19990;-77
2022/12/03 13:25:52;;;;;;;;;;;4.80;98.50;;;;;;5094175;28;20069;-77
2022/12/03 13:28:19;;;;;;;;;;;4.80;98.60;;;;;;5085505;28;19979;-77
2022/12/03 13:30:45;;;;;;;;;;;4.80;98.50;;;;;;5074457;28;19998;-78
2022/12/03 13:33:13;;;;;;;;;;;4.80;98.50;;;;;;5074973;28;19994;-76
2022/12/03 13:35:42;;;;;;;;;;;4.80;98.50;;;;;;5069217;28;20007;-76
2022/12/03 13:38:12;;;;;;;;;;;4.80;98.40;;;;;;5073801;28;19991;-77
2022/12/03 13:40:38;;;;;;;;;;;4.80;98.50;;;;;;5075782;28;19975;-77
2022/12/03 13:43:21;;;;;;;;;;;4.80;98.40;;;;;;5043312;28;20603;-77
2022/12/03 13:45:49;;;;;;;;;;;4.80;98.50;;;;;;5082427;28;20005;-77
2022/12/03 13:48:19;;;;;;;;;;;4.80;98.50;;;;;;5080398;28;19991;-77
2022/12/03 13:50:47;;;;;;;;;;;4.90;98.50;;;;;;5071831;28;19975;-76
2022/12/03 13:53:18;;;;;;;;;;;4.90;98.20;;;;;;5077049;28;19991;-77
2022/12/03 13:55:46;;;;;;;;;;;4.90;97.60;;;;;;5082226;28;19979;-77
2022/12/03 13:58:13;;;;;;;;;;;4.90;97.50;;;;;;5081065;28;19994;-77
2022/12/03 14:00:39;;;;;;;;;;;4.90;97.50;;;;;;5082555;28;19995;-77
2022/12/03 14:03:06;;;;;;;;;;;4.90;97.40;;;;;;5082643;28;19991;-77
2022/12/03 14:05:33;;;;;;;;;;;4.90;97.40;;;;;;5073913;28;19975;-76
2022/12/03 14:08:01;;;;;;;;;;;4.90;97.50;;;;;;5079307;28;19975;-77
2022/12/03 14:10:28;;;;;;;;;;;4.90;97.50;;;;;;5083060;28;20585;-77
2022/12/03 14:12:55;;;;;;;;;;;4.90;97.50;;;;;;5080439;28;20002;-76
2022/12/03 14:15:21;;;;;;;;;;;4.90;97.60;;;;;;5082237;28;20272;-77
2022/12/03 14:17:48;;;;;;;;;;;4.90;97.60;;;;;;5079328;28;19998;-77
2022/12/03 14:20:14;;;;;;;;;;;4.90;97.60;;;;;;5079333;28;19975;-77
2022/12/03 14:22:41;;;;;;;;;;;4.90;97.60;;;;;;5069296;28;19991;-77
2022/12/03 14:25:09;;;;;;;;;;;4.90;97.60;;;;;;5077773;28;19975;-76
2022/12/03 14:27:36;;;;;;;;;;;4.90;97.70;;;;;;5082796;28;19982;-76
2022/12/03 14:30:03;;;;;;;;;;;5.00;97.70;;;;;;5103003;28;20002;-76
2022/12/03 14:32:29;;;;;;;;;;;5.00;97.70;;;;;;5094870;28;19999;-76
2022/12/03 14:34:56;;;;;;;;;;;4.90;97.60;;;;;;5102537;28;20425;-76
2022/12/03 14:37:23;;;;;;;;;;;4.90;97.60;;;;;;5100059;28;20046;-76
2022/12/03 14:39:49;;;;;;;;;;;5.00;97.60;;;;;;5100766;28;19985;-77
2022/12/03 14:42:17;;;;;;;;;;;4.90;97.60;;;;;;5104128;28;19990;-76
2022/12/03 14:44:44;;;;;;;;;;;4.90;97.60;;;;;;5103258;28;20002;-77
2022/12/03 14:47:11;;;;;;;;;;;4.90;97.60;;;;;;5104503;28;20167;-77
2022/12/03 14:49:37;;;;;;;;;;;4.90;97.60;;;;;;5106015;28;19975;-75
2022/12/03 14:52:04;;;;;;;;;;;4.90;97.60;;;;;;5095516;28;19992;-76
2022/12/03 14:54:31;;;;;;;;;;;4.90;97.60;;;;;;5093047;28;19982;-76